createdAt,value
2019-02-12T00:03:38.689Z,11.28
2019-02-12T00:06:07.126Z,10.98
2019-02-12T00:08:35.624Z,13.28
2019-02-12T00:11:04.099Z,14.05
2019-02-12T00:13:33.306Z,11.75
2019-02-12T00:16:02.408Z,14.58
2019-02-12T00:18:31.012Z,13.72
2019-02-12T00:20:59.773Z,14.03
2019-02-12T00:23:28.559Z,9.65
2019-02-12T00:25:57.350Z,11.80
2019-02-12T00:28:26.553Z,16.73
2019-02-12T00:30:55.557Z,10.18
2019-02-12T00:33:24.441Z,14.55
2019-02-12T00:35:53.222Z,11.22
2019-02-12T00:38:21.967Z,13.15
2019-02-12T00:40:50.404Z,11.63
2019-02-12T00:43:19.882Z,14.00
2019-02-12T00:45:48.498Z,16.12
2019-02-12T00:48:17.561Z,14.47
2019-02-12T00:50:46.698Z,11.70
2019-02-12T00:53:15.507Z,11.03
2019-02-12T00:55:44.456Z,15.65
2019-02-12T00:58:13.453Z,10.58
2019-02-12T01:00:42.061Z,15.45
2019-02-12T01:03:10.894Z,13.25
2019-02-12T01:05:39.543Z,11.88
2019-02-12T01:08:08.233Z,15.05
2019-02-12T01:10:36.918Z,13.18
2019-02-12T01:13:05.744Z,13.13
2019-02-12T01:15:36.887Z,16.97
2019-02-12T01:18:05.309Z,12.87
2019-02-12T01:20:33.747Z,10.23
2019-02-12T01:23:02.850Z,12.98
2019-02-12T01:25:31.284Z,9.75
2019-02-12T01:28:00.033Z,16.00
2019-02-12T01:30:30.642Z,14.00
2019-02-12T01:32:59.126Z,12.28
2019-02-12T01:35:29.113Z,17.70
2019-02-12T01:37:58.255Z,13.60
2019-02-12T01:40:26.691Z,15.58
2019-02-12T01:42:55.121Z,13.50
2019-02-12T01:45:23.920Z,10.50
2019-02-12T01:47:52.638Z,15.10
2019-02-12T01:50:21.073Z,10.72
2019-02-12T01:52:49.836Z,11.83
2019-02-12T01:55:18.932Z,12.25
2019-02-12T01:57:47.955Z,10.25
2019-02-12T02:00:16.671Z,15.20
2019-02-12T02:02:45.922Z,19.25
2019-02-12T02:05:14.595Z,14.75
2019-02-12T02:07:43.040Z,10.48
2019-02-12T02:10:14.457Z,12.50
2019-02-12T02:12:43.420Z,17.62
2019-02-12T02:15:12.214Z,13.90
2019-02-12T02:17:40.654Z,15.03
2019-02-12T02:20:11.057Z,11.28
2019-02-12T02:22:39.604Z,15.40
2019-02-12T02:25:09.411Z,13.70
2019-02-12T02:27:38.034Z,17.32
2019-02-12T02:30:08.018Z,15.00
2019-02-12T02:32:37.929Z,16.70
2019-02-12T02:35:09.059Z,12.30
2019-02-12T02:37:37.852Z,17.73
2019-02-12T02:40:06.948Z,15.60
2019-02-12T02:42:35.407Z,13.13
2019-02-12T02:45:04.220Z,13.70
2019-02-12T02:47:32.665Z,18.05
2019-02-12T02:50:03.317Z,13.68
2019-02-12T02:52:31.583Z,15.03
2019-02-12T02:55:00.499Z,10.90
2019-02-12T02:57:29.620Z,18.05
2019-02-12T02:59:58.385Z,14.70
2019-02-12T03:02:27.273Z,12.45
2019-02-12T03:04:56.155Z,14.55
2019-02-12T03:07:24.589Z,14.00
2019-02-12T03:09:53.330Z,18.45
2019-02-12T03:12:22.130Z,10.75
2019-02-12T03:14:51.286Z,21.05
2019-02-12T03:17:19.723Z,14.95
2019-02-12T03:19:48.557Z,16.75
2019-02-12T03:22:17.369Z,21.10
2019-02-12T03:24:46.321Z,16.40
2019-02-12T03:27:15.359Z,12.85
2019-02-12T03:29:44.066Z,17.42
2019-02-12T03:32:12.861Z,13.32
2019-02-12T03:34:41.528Z,17.73
2019-02-12T03:37:09.980Z,14.23
2019-02-12T03:39:39.282Z,15.45
2019-02-12T03:42:08.082Z,15.58
2019-02-12T03:44:36.531Z,24.47
2019-02-12T03:47:04.966Z,9.20
2019-02-12T03:49:33.662Z,16.00
2019-02-12T03:52:02.115Z,19.62
2019-02-12T03:54:30.901Z,8.88
2019-02-12T03:56:59.328Z,13.53
2019-02-12T03:59:27.769Z,17.02
2019-02-12T04:01:56.200Z,22.67
2019-02-12T04:04:24.920Z,16.00
2019-02-12T04:06:53.359Z,10.10
2019-02-12T04:09:22.084Z,18.23
2019-02-12T04:11:50.839Z,12.30
2019-02-12T04:14:19.287Z,18.23
2019-02-12T04:16:48.063Z,9.20
2019-02-12T04:19:16.509Z,17.87
2019-02-12T04:21:45.265Z,13.53
2019-02-12T04:24:13.966Z,12.75
2019-02-12T04:26:42.399Z,10.90
2019-02-12T04:29:11.160Z,16.48
2019-02-12T04:31:39.595Z,16.27
2019-02-12T04:34:08.531Z,17.00
2019-02-12T04:36:36.961Z,14.75
2019-02-12T04:39:05.750Z,13.93
2019-02-12T04:41:37.245Z,16.40
2019-02-12T04:44:05.699Z,15.43
2019-02-12T04:46:34.724Z,14.10
2019-02-12T04:49:03.512Z,17.30
2019-02-12T04:51:32.179Z,17.40
2019-02-12T04:54:01.300Z,15.68
2019-02-12T04:56:29.719Z,25.20
2019-02-12T04:58:58.486Z,19.37
2019-02-12T05:01:27.146Z,16.07
2019-02-12T05:03:55.944Z,12.40
2019-02-12T05:06:24.928Z,16.80
2019-02-12T05:09:17.052Z,20.95
2019-02-12T05:12:11.025Z,21.27
2019-02-12T05:14:39.469Z,14.18
2019-02-12T05:17:08.418Z,16.45
2019-02-12T05:19:36.937Z,13.60
2019-02-12T05:22:05.352Z,18.40
2019-02-12T05:24:34.093Z,14.13
2019-02-12T05:27:02.527Z,15.88
2019-02-12T05:29:31.259Z,16.15
2019-02-12T05:32:00.214Z,16.02
2019-02-12T05:34:28.882Z,16.75
2019-02-12T05:36:57.590Z,11.70
2019-02-12T05:39:26.307Z,12.00
2019-02-12T05:41:55.267Z,17.20
2019-02-12T05:44:24.232Z,21.77
2019-02-12T05:46:53.009Z,12.60
2019-02-12T05:49:21.447Z,26.80
2019-02-12T05:51:50.423Z,13.88
2019-02-12T05:54:18.865Z,24.32
2019-02-12T05:56:47.555Z,19.37
2019-02-12T05:59:16.281Z,17.87
2019-02-12T06:01:44.734Z,16.07
2019-02-12T06:04:13.516Z,17.10
2019-02-12T06:06:41.937Z,17.10
2019-02-12T06:09:10.678Z,17.25
2019-02-12T06:11:39.800Z,21.42
2019-02-12T06:14:08.241Z,19.50
2019-02-12T06:16:37.189Z,23.57
2019-02-12T06:19:05.861Z,19.00
2019-02-12T06:21:34.638Z,17.67
2019-02-12T06:24:03.069Z,18.70
2019-02-12T06:26:31.528Z,24.45
2019-02-12T06:29:00.291Z,19.23
2019-02-12T06:31:29.083Z,20.97
2019-02-12T06:33:57.513Z,23.65
2019-02-12T06:36:25.959Z,23.57
2019-02-12T06:38:54.381Z,22.60
2019-02-12T06:41:23.078Z,24.90
2019-02-12T06:43:52.108Z,22.00
2019-02-12T06:46:20.571Z,23.10
2019-02-12T06:48:48.999Z,28.67
2019-02-12T06:51:20.523Z,23.42
2019-02-12T06:53:48.982Z,27.52
2019-02-12T06:56:17.937Z,24.10
2019-02-12T06:58:46.605Z,25.88
2019-02-12T07:01:15.354Z,29.55
2019-02-12T07:04:04.966Z,24.37
2019-02-12T07:07:07.046Z,28.83
2019-02-12T07:09:57.994Z,26.40
2019-02-12T07:12:59.570Z,22.00
2019-02-12T07:15:37.942Z,27.20
2019-02-12T07:18:26.240Z,27.73
2019-02-12T07:21:31.767Z,28.42
2019-02-12T07:24:36.737Z,28.73
2019-02-12T07:27:46.753Z,24.32
2019-02-12T07:30:46.969Z,34.48
2019-02-12T07:34:11.901Z,33.02
2019-02-12T07:36:52.970Z,24.18
2019-02-12T07:40:04.558Z,31.73
2019-02-12T07:42:48.439Z,29.25
2019-02-12T07:45:47.147Z,32.00
2019-02-12T07:48:45.208Z,25.30
2019-02-12T07:51:51.226Z,26.20
2019-02-12T07:55:01.335Z,25.08
2019-02-12T07:57:59.628Z,24.47
2019-02-12T08:00:40.743Z,26.85
2019-02-12T08:03:38.306Z,24.98
2019-02-12T08:06:39.384Z,28.42
2019-02-12T08:10:04.346Z,26.55
2019-02-12T08:13:14.958Z,30.75
2019-02-12T08:16:20.437Z,24.77
2019-02-12T08:19:30.990Z,21.93
2019-02-12T08:22:30.587Z,29.45
2019-02-12T08:25:09.889Z,24.57
2019-02-12T08:27:54.185Z,21.90
2019-02-12T08:30:38.909Z,21.57
2019-02-12T08:33:37.625Z,27.32
2019-02-12T08:36:38.465Z,22.07
2019-02-12T08:39:18.493Z,24.15
2019-02-12T08:42:10.376Z,20.12
2019-02-12T08:44:49.969Z,21.80
2019-02-12T08:48:03.585Z,24.98
2019-02-12T08:50:53.997Z,19.15
2019-02-12T08:53:50.581Z,18.82
2019-02-12T08:56:25.993Z,16.32
2019-02-12T08:59:11.325Z,21.33
2019-02-12T09:01:58.897Z,24.37
2019-02-12T09:04:36.783Z,24.37
2019-02-12T09:07:18.971Z,18.62
2019-02-12T09:13:09.424Z,24.85
2019-02-12T09:16:18.016Z,23.62
2019-02-12T09:18:57.151Z,25.15
2019-02-12T09:21:46.247Z,26.30
2019-02-12T09:24:45.122Z,20.95
2019-02-12T09:27:27.002Z,25.48
2019-02-12T09:30:37.497Z,25.43
2019-02-12T09:33:29.997Z,24.23
2019-02-12T09:36:58.075Z,20.82
2019-02-12T09:39:59.052Z,23.07
2019-02-12T09:42:49.347Z,21.75
2019-02-12T09:45:49.846Z,18.10
2019-02-12T09:48:32.620Z,25.37
2019-02-12T09:51:54.742Z,24.32
2019-02-12T09:54:40.115Z,27.52
2019-02-12T09:57:36.995Z,20.05
2019-02-12T10:00:29.980Z,27.20
2019-02-12T10:03:33.496Z,26.70
2019-02-12T10:06:46.499Z,26.50
2019-02-12T10:09:47.949Z,20.35
2019-02-12T10:12:45.213Z,20.48
2019-02-12T10:15:47.996Z,18.80
2019-02-12T10:18:25.509Z,17.10
2019-02-12T10:21:29.647Z,16.73
2019-02-12T10:24:19.962Z,15.00
2019-02-12T10:27:01.997Z,14.65
2019-02-12T10:30:08.664Z,13.15
2019-02-12T10:32:35.974Z,13.90
2019-02-12T10:35:04.760Z,10.95
2019-02-12T10:37:33.196Z,13.88
2019-02-12T10:40:01.637Z,18.55
2019-02-12T10:42:30.363Z,15.15
2019-02-12T10:44:59.076Z,11.57
2019-02-12T10:47:27.531Z,13.40
2019-02-12T10:49:56.316Z,12.13
2019-02-12T10:52:25.062Z,12.07
2019-02-12T10:54:53.513Z,9.88
2019-02-12T10:57:22.634Z,15.63
2019-02-12T10:59:51.397Z,14.90
2019-02-12T11:02:20.461Z,14.18
2019-02-12T11:04:49.455Z,14.47
2019-02-12T11:07:18.204Z,10.85
2019-02-12T11:09:46.923Z,14.03
2019-02-12T11:12:15.916Z,22.60
2019-02-12T11:14:44.366Z,16.20
2019-02-12T11:17:12.796Z,15.35
2019-02-12T11:19:41.231Z,14.15
2019-02-12T11:22:09.663Z,14.50
2019-02-12T11:24:38.108Z,17.75
2019-02-12T11:27:07.205Z,13.80
2019-02-12T11:29:36.011Z,17.52
2019-02-12T11:32:04.567Z,12.68
2019-02-12T11:34:33.378Z,19.92
2019-02-12T11:37:01.820Z,19.07
2019-02-12T11:39:30.262Z,21.90
2019-02-12T11:41:59.014Z,18.98
2019-02-12T11:44:27.724Z,23.35
2019-02-12T11:46:56.494Z,17.40
2019-02-12T11:49:27.843Z,21.15
2019-02-12T11:51:56.631Z,21.50
2019-02-12T11:54:25.576Z,22.42
2019-02-12T11:56:54.319Z,16.23
2019-02-12T11:59:22.764Z,22.60
2019-02-12T12:01:51.214Z,15.98
2019-02-12T12:04:22.737Z,18.35
2019-02-12T12:06:51.517Z,21.45
2019-02-12T12:09:19.963Z,16.48
2019-02-12T12:11:48.409Z,16.62
2019-02-12T12:14:17.173Z,20.97
2019-02-12T12:16:45.930Z,15.10
2019-02-12T12:19:15.339Z,16.00
2019-02-12T12:21:45.494Z,16.25
2019-02-12T12:24:14.566Z,17.95
2019-02-12T12:26:43.345Z,12.55
2019-02-12T12:29:11.775Z,13.85
2019-02-12T12:31:40.475Z,12.53
2019-02-12T12:34:09.201Z,16.60
2019-02-12T12:36:37.989Z,13.68
2019-02-12T12:39:07.009Z,15.43
2019-02-12T12:41:35.567Z,12.95
2019-02-12T12:44:04.253Z,14.83
2019-02-12T12:46:33.247Z,13.13
2019-02-12T12:49:01.683Z,11.75
2019-02-12T12:51:31.618Z,14.23
2019-02-12T12:54:00.056Z,13.80
2019-02-12T12:56:28.516Z,12.03
2019-02-12T12:58:57.245Z,13.93
2019-02-12T13:01:26.013Z,12.18
2019-02-12T13:03:54.419Z,8.85
2019-02-12T13:06:23.095Z,19.15
2019-02-12T13:08:51.771Z,12.07
2019-02-12T13:11:20.710Z,11.97
2019-02-12T13:13:49.395Z,17.30
2019-02-12T13:16:17.818Z,16.70
2019-02-12T13:18:46.560Z,17.92
2019-02-12T13:21:15.662Z,16.25
2019-02-12T13:23:44.446Z,18.02
2019-02-12T13:26:13.225Z,13.35
2019-02-12T13:28:42.000Z,14.65
2019-02-12T13:31:10.485Z,16.82
2019-02-12T13:33:39.285Z,22.82
2019-02-12T13:36:08.082Z,21.07
2019-02-12T13:38:38.048Z,19.57
2019-02-12T13:41:07.084Z,21.55
2019-02-12T13:43:35.979Z,21.68
2019-02-12T13:46:04.421Z,21.75
2019-02-12T13:48:33.529Z,19.48
2019-02-12T13:51:02.235Z,15.15
2019-02-12T13:53:30.687Z,20.57
2019-02-12T13:55:59.114Z,22.32
2019-02-12T13:58:27.624Z,20.10
2019-02-12T14:00:56.012Z,13.18
2019-02-12T14:03:24.819Z,15.83
2019-02-12T14:05:53.538Z,22.90
2019-02-12T14:08:21.989Z,15.80
2019-02-12T14:10:50.421Z,17.98
2019-02-12T14:13:20.301Z,17.07
2019-02-12T14:15:48.757Z,15.03
2019-02-12T14:18:17.207Z,15.50
2019-02-12T14:20:45.956Z,21.77
2019-02-12T14:23:14.743Z,25.10
2019-02-12T14:25:43.207Z,15.08
2019-02-12T14:28:11.743Z,21.65
2019-02-12T14:30:40.175Z,17.10
2019-02-12T14:33:08.618Z,13.38
2019-02-12T14:35:37.059Z,15.88
2019-02-12T14:38:05.511Z,14.25
2019-02-12T14:40:33.964Z,21.93
2019-02-12T14:43:02.405Z,17.27
2019-02-12T14:45:31.484Z,15.43
2019-02-12T14:48:00.846Z,15.93
2019-02-12T14:50:32.433Z,22.40
2019-02-12T14:53:01.526Z,26.12
2019-02-12T14:55:33.828Z,16.50
2019-02-12T14:58:00.135Z,17.23
2019-02-12T15:00:28.566Z,18.85
2019-02-12T15:02:57.405Z,16.57
2019-02-12T15:05:25.922Z,23.40
2019-02-12T15:07:54.670Z,31.05
2019-02-12T15:10:23.537Z,18.73
2019-02-12T15:12:52.318Z,24.35
2019-02-12T15:15:21.069Z,27.35
2019-02-12T15:17:49.786Z,30.57
2019-02-12T15:27:55.621Z,27.13
2019-02-12T15:30:24.715Z,20.57
2019-02-12T15:32:53.638Z,22.00
2019-02-12T15:35:22.698Z,33.00
2019-02-12T15:37:51.157Z,24.18
2019-02-12T15:40:19.655Z,27.22
2019-02-12T15:42:48.447Z,30.00
2019-02-12T15:45:17.439Z,40.67
2019-02-12T15:47:45.896Z,25.43
2019-02-12T15:50:14.607Z,45.83
2019-02-12T15:52:43.053Z,26.17
2019-02-12T15:55:12.571Z,42.00
2019-02-12T15:57:43.695Z,42.67
2019-02-12T16:00:15.492Z,32.98
2019-02-12T16:02:44.096Z,28.75
2019-02-12T16:05:12.702Z,27.65
2019-02-12T16:07:42.610Z,33.70
2019-02-12T16:10:14.895Z,41.73
2019-02-12T16:12:44.037Z,36.08
2019-02-12T16:15:14.591Z,30.62
2019-02-12T16:17:43.044Z,35.85
2019-02-12T16:20:11.839Z,31.57
2019-02-12T16:22:40.629Z,44.90
2019-02-12T16:25:09.562Z,42.65
2019-02-12T16:27:38.008Z,36.40
2019-02-12T16:30:09.326Z,42.90
2019-02-12T16:32:38.036Z,36.75
2019-02-12T16:35:07.679Z,36.20
2019-02-12T16:37:36.427Z,47.60
2019-02-12T16:40:05.875Z,50.08
2019-02-12T16:42:34.312Z,36.28
2019-02-12T16:45:02.952Z,45.30
2019-02-12T16:47:31.697Z,39.85
2019-02-12T16:50:00.479Z,42.43
2019-02-12T16:52:29.261Z,41.60
2019-02-12T16:54:57.712Z,47.20
2019-02-12T16:57:26.168Z,72.78
2019-02-12T16:59:54.878Z,38.92
2019-02-12T17:02:23.848Z,49.23
2019-02-12T17:04:52.321Z,42.70
2019-02-12T17:07:21.014Z,59.58
2019-02-12T17:09:52.391Z,36.45
2019-02-12T17:12:20.900Z,37.78
2019-02-12T17:14:49.972Z,33.38
2019-02-12T17:17:18.660Z,36.38
2019-02-12T17:19:47.118Z,33.33
2019-02-12T17:22:15.587Z,32.90
2019-02-12T17:24:44.085Z,34.95
2019-02-12T17:27:12.585Z,30.15
2019-02-12T17:29:41.259Z,31.40
2019-02-12T17:32:09.768Z,31.97
2019-02-12T17:34:38.454Z,28.77
2019-02-12T17:37:07.231Z,29.60
2019-02-12T17:39:35.944Z,33.83
2019-02-12T17:42:04.418Z,25.50
2019-02-12T17:44:33.139Z,27.32
2019-02-12T17:47:02.187Z,32.95
2019-02-12T17:49:30.642Z,34.65
2019-02-12T17:51:59.350Z,31.37
2019-02-12T17:54:28.144Z,31.65
2019-02-12T17:56:56.677Z,36.77
2019-02-12T17:59:25.548Z,28.73
2019-02-12T18:01:53.967Z,30.37
2019-02-12T18:04:23.080Z,25.95
2019-02-12T18:06:51.914Z,32.20
2019-02-12T18:09:20.974Z,31.45
2019-02-12T18:11:49.430Z,33.33
2019-02-12T18:14:17.887Z,26.17
2019-02-12T18:16:46.345Z,30.12
2019-02-12T18:19:14.850Z,33.65
2019-02-12T18:21:43.885Z,34.85
2019-02-12T18:24:12.347Z,37.28
2019-02-12T18:26:40.803Z,34.05
2019-02-12T18:29:09.551Z,29.77
2019-02-12T18:31:38.309Z,106.03
2019-02-12T18:34:07.094Z,48.08
2019-02-12T18:36:35.898Z,35.23
2019-02-12T18:39:05.054Z,41.95
2019-02-12T18:41:34.193Z,47.50
2019-02-12T18:44:02.632Z,36.38
2019-02-12T18:46:31.133Z,41.73
2019-02-12T18:49:00.233Z,37.45
2019-02-12T18:51:29.036Z,33.88
2019-02-12T18:53:57.766Z,34.53
2019-02-12T18:56:26.210Z,29.92
2019-02-12T18:58:54.986Z,28.73
2019-02-12T19:01:23.450Z,32.42
2019-02-12T19:03:52.155Z,35.45
2019-02-12T19:06:20.607Z,31.42
2019-02-12T19:08:50.043Z,30.00
2019-02-12T19:11:18.537Z,31.68
2019-02-12T19:13:47.010Z,29.18
2019-02-12T19:16:15.793Z,28.80
2019-02-12T19:18:44.287Z,36.98
2019-02-12T19:21:12.743Z,34.75
2019-02-12T19:23:41.448Z,39.30
2019-02-12T19:26:10.223Z,49.85
2019-02-12T19:28:38.984Z,34.00
2019-02-12T19:31:07.458Z,33.30
2019-02-12T19:33:36.486Z,38.35
2019-02-12T19:36:05.274Z,30.17
2019-02-12T19:38:34.002Z,29.98
2019-02-12T19:41:02.442Z,31.70
2019-02-12T19:43:31.526Z,35.58
2019-02-12T19:46:00.244Z,32.17
2019-02-12T19:48:28.727Z,51.40
2019-02-12T19:50:57.482Z,37.85
2019-02-12T19:53:26.514Z,39.83
2019-02-12T19:55:55.212Z,37.35
2019-02-12T19:58:23.911Z,49.67
2019-02-12T20:00:52.613Z,33.63
2019-02-12T20:03:21.077Z,33.50
2019-02-12T20:05:49.529Z,36.58
2019-02-12T20:08:17.983Z,36.53
2019-02-12T20:10:46.687Z,39.30
2019-02-12T20:13:15.874Z,38.73
2019-02-12T20:15:44.312Z,32.45
2019-02-12T20:18:14.092Z,31.68
2019-02-12T20:20:43.160Z,36.95
2019-02-12T20:23:12.110Z,34.45
2019-02-12T20:25:40.576Z,39.42
2019-02-12T20:28:09.542Z,41.42
2019-02-12T20:30:37.989Z,34.95
2019-02-12T20:33:06.480Z,41.68
2019-02-12T20:35:36.259Z,43.35
2019-02-12T20:38:05.157Z,43.48
2019-02-12T20:40:33.858Z,36.25
2019-02-12T20:43:02.552Z,41.60
2019-02-12T20:45:32.190Z,35.08
2019-02-12T20:48:00.941Z,39.10
2019-02-12T20:50:29.411Z,33.88
2019-02-12T20:52:58.251Z,36.48
2019-02-12T20:55:27.013Z,42.27
2019-02-12T20:57:55.480Z,38.35
2019-02-12T21:00:23.997Z,40.10
2019-02-12T21:02:52.744Z,48.58
2019-02-12T21:05:21.260Z,43.30
2019-02-12T21:07:51.827Z,46.95
2019-02-12T21:10:20.306Z,44.18
2019-02-12T21:12:48.984Z,45.85
2019-02-12T21:15:19.222Z,49.55
2019-02-12T21:17:47.940Z,45.12
2019-02-12T21:20:16.675Z,43.68
2019-02-12T21:22:45.423Z,42.93
2019-02-12T21:25:14.097Z,44.55
2019-02-12T21:27:42.558Z,43.87
2019-02-12T21:30:13.726Z,49.45
2019-02-12T21:32:42.228Z,44.57
2019-02-12T21:35:11.101Z,40.50
2019-02-12T21:37:39.555Z,42.30
2019-02-12T21:40:11.635Z,47.35
2019-02-12T21:45:08.889Z,43.92
2019-02-12T21:47:37.315Z,43.20
2019-02-12T21:50:06.061Z,43.55
2019-02-12T21:52:34.530Z,41.98
2019-02-12T21:55:03.238Z,44.33
2019-02-12T21:57:32.244Z,46.42
2019-02-12T22:00:00.767Z,50.25
2019-02-12T22:02:29.735Z,41.88
2019-02-12T22:04:58.212Z,49.03
2019-02-12T22:07:26.667Z,44.27
2019-02-12T22:09:55.613Z,134.82
2019-02-12T22:12:24.324Z,61.65
2019-02-12T22:14:53.050Z,54.85
2019-02-12T22:17:21.748Z,107.83
2019-02-12T22:19:50.438Z,55.45
2019-02-12T22:22:18.905Z,67.97
2019-02-12T22:24:47.607Z,49.03
2019-02-12T22:27:16.061Z,42.25
2019-02-12T22:29:44.521Z,47.83
2019-02-12T22:32:12.980Z,42.25
2019-02-12T22:34:41.443Z,38.17
2019-02-12T22:37:10.173Z,42.30
2019-02-12T22:39:39.543Z,48.35
2019-02-12T22:42:08.031Z,42.38
2019-02-12T22:44:36.473Z,47.73
2019-02-12T22:47:05.166Z,39.13
2019-02-12T22:49:33.908Z,39.08
2019-02-12T22:52:02.393Z,39.92
2019-02-12T22:54:31.073Z,38.17
2019-02-12T22:56:59.775Z,58.80
2019-02-12T22:59:28.483Z,39.53
2019-02-12T23:01:57.421Z,38.28
2019-02-12T23:04:26.119Z,51.58
2019-02-12T23:06:55.089Z,38.60
2019-02-12T23:09:23.522Z,35.45
2019-02-12T23:11:52.231Z,33.30
2019-02-12T23:14:20.955Z,36.28
2019-02-12T23:16:49.518Z,34.00
2019-02-12T23:19:18.072Z,37.03
2019-02-12T23:21:46.817Z,34.40
2019-02-12T23:24:15.284Z,34.92
2019-02-12T23:26:43.779Z,32.33
2019-02-12T23:29:12.479Z,36.88
2019-02-12T23:31:41.196Z,31.42
2019-02-12T23:34:09.659Z,35.65
2019-02-12T23:36:38.159Z,35.00
2019-02-12T23:39:06.600Z,37.93
2019-02-12T23:41:35.080Z,35.43
2019-02-12T23:44:03.520Z,38.95
2019-02-12T23:46:32.244Z,38.55
2019-02-12T23:49:03.430Z,41.45
2019-02-12T23:51:31.916Z,42.67
2019-02-12T23:54:00.655Z,40.43
2019-02-12T23:56:29.381Z,40.80
2019-02-12T23:58:58.077Z,41.80
